ANTO2: Kiamichi River, Antlers, OKla

Data processed at Mon Jun 29 23:32:44 2015 Central Daylight Time


All information presented herein is the property of the government of the United States of America and may be revised or deleted at any time without prior notice.
Dissemination of this information without the expressed written consent of the Public Affairs Office, Tulsa District U.S. Army Corps of Engineers is strictly prohibited.
These data are gathered electronically and, as presented, have not undergone any form of quality control. These data are not guaranteed to be valid or correct.
Go to home page.
Go to station list.
Go to station map.

Upstream stations:

Downstream station: Previous Day
Next Day
Current Day

Display graphics.
Display DCP transmissions.


    
    SHEF ID:       ANTO2     Kiamichi River, Antlers, OKla
    STATION TYPE:  STREAM GAGE
    Regulation Limits:  Stage =   22.00, Flow =   19214
    
                   PRECIP PRECIP(2)     STAGE  RIV-FLOW  BAT-LOAD
                   INCHES    INCHES      FEET       CFS     VOLTS
                     GOES      GOES      GOES      GOES      GOES
       (Cen)
    06/29 01:00      0.00      0.00     16.68     11592     12.65
    06/29 02:00      0.00      0.00     16.69     11606     12.65
    06/29 03:00      0.00      0.00     16.69     11606     12.65
    06/29 04:00      0.00      0.00     16.69     11606     12.65
    06/29 05:00      0.00      0.00     16.69     11606     12.57
    06/29 06:00      0.00      0.00     16.68     11592     12.57
    06/29 07:00      0.00      0.00     16.67     11579     12.57
    06/29 08:00      0.00      0.00     16.68     11592     12.57
    06/29 09:00      0.00      0.00     16.66     11565     12.81
    06/29 10:00      0.00      0.00     16.65     11552     12.97
    06/29 11:00      0.00      0.00     16.66     11565     13.05
    06/29 12:00      0.00      0.00     16.67     11579     13.05
    06/29 13:00      0.00      0.00     16.66     11565     13.05
    06/29 14:00      0.00      0.00     16.65     11552     13.05
    06/29 15:00      0.00      0.00     16.64     11539     13.13
    06/29 16:00      0.00      0.00     16.64     11539     13.13
    06/29 17:00      0.00      0.00     16.63     11525     12.97
    06/29 18:00      0.00      0.00     16.63     11525     12.97
    06/29 19:00      0.00      0.00     16.62     11512     12.97
    06/29 20:00      0.00      0.00     16.63     11525     12.89
    06/29 21:00      0.00      0.00     16.61     11498     12.73
    06/29 22:00      0.00      0.00     16.62     11512     12.65
    06/29 23:00      0.00      0.00     16.59     11472     12.65
    06/30 00:00      ----      ----      ----      ----      ----